Shin Chun — VRFD2 — position and weather

sailwx.info

Track history (hours):
 
Tides and Currents Weather Stations Pressure Air Temp Water Temp Dewpoint Dewpoint Depression Visibility Wind Speed Wind Dir Waves Ship Positions

Shin Chun

Last reported at 2014-Oct-02 12:33 UTC. Time now 2014-Oct-02 12:36 UTC.
Position N 25°19' E 119°31'.

Length 152 m; draft 6.1 m.

Type: Cargo ship. MMSI: 477218300.

Date/timePositionNaut miles runAvg speedWind from/ knotsBaromVisibWave heightAir tempDewpointWater temp
2014-Oct-02 12:33N 25°19' E 119°31'1413.9
2014-Oct-02 11:33N 25°25' E 119°17'0 0.2
2014-Oct-02 10:14N 25°25' E 119°17'0 0.0
2014-Oct-02 09:32N 25°25' E 119°17'0 0.0
2014-Oct-02 02:20N 25°25' E 119°17'14 7.6
2014-Oct-02 00:33N 25°19' E 119°31'151 5.3
2014-Sep-30 20:14N 22°51' E 120°02'1014.7
2014-Sep-30 19:33N 22°43' E 120°09'1111.4
2014-Sep-30 18:33N 22°35' E 120°18'1 0.7
2014-Sep-30 17:28N 22°35' E 120°18'0 0.0
2014-Sep-30 16:22N 22°35' E 120°18'0 0.0
2014-Sep-30 15:28N 22°35' E 120°18'0 0.0
2014-Sep-30 14:28N 22°35' E 120°18'0 0.0
2014-Sep-30 13:28N 22°35' E 120°18'0 0.0
2014-Sep-30 12:28N 22°35' E 120°18'0 0.0
2014-Sep-30 11:28N 22°35' E 120°18'0 0.0
2014-Sep-30 10:16N 22°35' E 120°18'0 0.0
2014-Sep-30 09:28N 22°35' E 120°18'0 0.0
2014-Sep-30 06:25N 22°35' E 120°18'0 0.2
2014-Sep-30 05:20N 22°35' E 120°18'6 7.3
2014-Sep-30 04:33N 22°37' E 120°13'9 8.9
2014-Sep-30 03:34N 22°42' E 120°04'1313.3
2014-Sep-30 02:33N 22°50' E 119°53'1414.4
2014-Sep-30 01:33N 22°58' E 119°39'2015.1
2014-Sep-30 00:15N 23°10' E 119°23'1215.6
2014-Sep-29 23:28N 23°19' E 119°14'1516.1
2014-Sep-29 22:33N 23°30' E 119°03'4915.7
2014-Sep-29 19:27N 24°05' E 118°26'1314.7
2014-Sep-29 18:33N 24°15' E 118°16'1413.6
2014-Sep-29 17:33N 24°24' E 118°06'6 6.3
2014-Sep-29 16:32N 24°31' E 118°05'0 0.0
2014-Sep-29 15:32N 24°31' E 118°05'0 0.0
2014-Sep-29 14:32N 24°31' E 118°05'0 0.0
2014-Sep-29 13:32N 24°31' E 118°05'0 0.0
2014-Sep-29 12:32N 24°31' E 118°05'0 0.0
2014-Sep-29 11:32N 24°31' E 118°05'0 0.0
2014-Sep-29 10:20N 24°31' E 118°05'0 0.0
2014-Sep-29 09:32N 24°31' E 118°05'0 0.0
2014-Sep-29 08:20N 24°31' E 118°05'0 0.0
2014-Sep-29 07:29N 24°31' E 118°05'0 0.0
2014-Sep-29 06:32N 24°31' E 118°05'0 0.0
2014-Sep-29 05:26N 24°31' E 118°05'0 0.0
2014-Sep-29 04:31N 24°31' E 118°05'0 0.0
2014-Sep-29 03:31N 24°31' E 118°05'0 0.0
2014-Sep-29 02:31N 24°31' E 118°05'0 0.0
2014-Sep-29 01:31N 24°31' E 118°05'0 0.0
2014-Sep-29 00:31N 24°31' E 118°05'3 3.2
2014-Sep-28 23:33N 24°28' E 118°03'1110.8
2014-Sep-28 22:33N 24°20' E 118°11'1413.8
2014-Sep-28 21:33N 24°09' E 118°21'1413.8
2014-Sep-28 20:33N 23°60' E 118°32'2913.5
2014-Sep-28 18:26N 23°39' E 118°53'1313.8
2014-Sep-28 17:29N 23°29' E 119°03'1815.0
2014-Sep-28 16:15N 23°16' E 119°17'1116.3
2014-Sep-28 15:34N 23°08' E 119°25'1514.5
2014-Sep-28 14:33N 22°58' E 119°38'1515.1
2014-Sep-28 13:33N 22°49' E 119°50'1414.2
2014-Sep-28 12:33N 22°40' E 120°02'1413.5
2014-Sep-28 11:33N 22°33' E 120°14'4 4.0
2014-Sep-28 10:32N 22°35' E 120°18'0 0.1
2014-Sep-28 09:32N 22°35' E 120°18'0 0.1
2014-Sep-28 08:26N 22°35' E 120°18'0 0.0
2014-Sep-28 07:32N 22°35' E 120°18'0 0.0
2014-Sep-28 06:32N 22°35' E 120°18'0 0.0
2014-Sep-28 05:32N 22°35' E 120°18'0 0.0
2014-Sep-28 04:32N 22°35' E 120°18'0 0.0
2014-Sep-28 03:32N 22°35' E 120°18'0 0.0
2014-Sep-28 02:32N 22°35' E 120°18'0 0.0
2014-Sep-28 01:20N 22°35' E 120°18'0 0.0
2014-Sep-28 00:32N 22°35' E 120°18'1 0.5
2014-Sep-27 23:33N 22°35' E 120°18'6 6.4
2014-Sep-27 22:33N 22°38' E 120°12'3 2.7
2014-Sep-27 21:33N 22°40' E 120°10'7 6.6
2014-Sep-27 20:33N 22°45' E 120°06'1413.9
2014-Sep-27 19:33N 22°56' E 119°56'6812.4
2014-Sep-27 14:07N 24°04' E 119°58'12212.8
2014-Sep-27 04:33N 26°05' E 119°44'10 9.7
2014-Sep-27 03:33N 26°07' E 119°33'8 8.0
2014-Sep-27 02:33N 26°00' E 119°29'0 0.0
2014-Sep-27 01:22N 26°00' E 119°29'0 0.0
2014-Sep-27 00:28N 26°00' E 119°29'0 0.0
2014-Sep-26 23:22N 26°00' E 119°29'0 0.0
2014-Sep-26 22:22N 26°00' E 119°29'0 0.0
2014-Sep-26 21:28N 26°00' E 119°29'0 0.0
2014-Sep-26 20:22N 26°00' E 119°29'0 0.0
2014-Sep-26 19:28N 26°00' E 119°29'0 0.0
2014-Sep-26 18:28N 26°00' E 119°29'0 0.0
2014-Sep-26 17:28N 26°00' E 119°29'0 0.0
2014-Sep-26 16:28N 26°00' E 119°29'0 0.0
2014-Sep-26 15:22N 26°00' E 119°29'0 0.0
2014-Sep-26 14:28N 26°00' E 119°29'0 0.0
2014-Sep-26 13:16N 26°00' E 119°29'0 0.0
2014-Sep-26 12:28N 26°00' E 119°29'0 0.0
2014-Sep-26 11:28N 26°00' E 119°29'0 0.0
2014-Sep-26 10:28N 26°00' E 119°29'0 0.0
2014-Sep-26 09:28N 26°00' E 119°29'0 0.0
2014-Sep-26 08:28N 26°00' E 119°29'0 0.0
2014-Sep-26 07:22N 26°00' E 119°29'0 0.0
2014-Sep-26 06:28N 26°00' E 119°29'0 0.4
2014-Sep-26 05:33N 26°00' E 119°29'5 4.8
2014-Sep-26 04:33N 26°05' E 119°32'10 6.8
2014-Sep-26 03:09N 26°06' E 119°42'5 8.4
2014-Sep-26 02:30N 26°05' E 119°48'2 0.4
2014-Sep-25 21:30N 26°04' E 119°50'1612.1
2014-Sep-25 20:09N 25°49' E 119°59'39 8.6
2014-Sep-25 15:33N 25°19' E 119°30'1311.4
2014-Sep-25 14:27N 25°24' E 119°17'1 0.5
2014-Sep-25 13:19N 25°25' E 119°17'0 0.0
2014-Sep-25 12:31N 25°25' E 119°17'0 0.0
2014-Sep-25 11:31N 25°25' E 119°17'0 0.0
2014-Sep-25 10:31N 25°25' E 119°17'0 0.0
2014-Sep-25 09:28N 25°25' E 119°17'0 0.0
2014-Sep-25 08:28N 25°25' E 119°17'0 0.0
2014-Sep-25 07:22N 25°25' E 119°17'0 0.0
2014-Sep-25 06:16N 25°25' E 119°17'0 0.0
2014-Sep-25 05:22N 25°25' E 119°17'0 0.0
2014-Sep-25 04:28N 25°25' E 119°17'0 0.0
2014-Sep-25 03:22N 25°25' E 119°17'6 2.0
2014-Sep-25 00:34N 25°22' E 119°23'1211.4
2014-Sep-24 23:32N 25°18' E 119°35'4 3.7
2014-Sep-24 22:32N 25°17' E 119°39'0 0.1
2014-Sep-24 20:32N 25°17' E 119°39'0 0.5
2014-Sep-24 19:33N 25°17' E 119°39'143 7.9
2014-Sep-24 01:33N 22°55' E 119°58'1414.2
2014-Sep-24 00:33N 22°43' E 120°07'1312.7
2014-Sep-23 23:33N 22°33' E 120°15'4 3.5
2014-Sep-23 22:19N 22°33' E 120°19'0 0.0
2014-Sep-23 19:31N 22°33' E 120°19'0 0.0
2014-Sep-23 17:16N 22°33' E 120°19'0 0.1
2014-Sep-23 16:22N 22°33' E 120°19'0 0.1
2014-Sep-23 15:30N 22°33' E 120°19'0 0.0
2014-Sep-23 14:33N 22°33' E 120°19'5 5.0
2014-Sep-23 13:33N 22°32' E 120°14'7 7.0
2014-Sep-23 12:31N 22°39' E 120°13'0 0.1
2014-Sep-23 11:31N 22°39' E 120°13'0 0.0
2014-Sep-23 10:31N 22°39' E 120°13'0 0.0
2014-Sep-23 09:31N 22°39' E 120°13'0 0.0
2014-Sep-23 08:31N 22°39' E 120°13'0 0.1
2014-Sep-23 07:31N 22°39' E 120°13'0 0.1
2014-Sep-23 06:31N 22°39' E 120°13'0 0.1
2014-Sep-23 05:25N 22°39' E 120°13'0 0.0
2014-Sep-23 04:19N 22°39' E 120°13'0 0.1
2014-Sep-23 03:31N 22°39' E 120°12'0 0.1
2014-Sep-23 02:25N 22°39' E 120°12'0 0.1
2014-Sep-23 01:31N 22°39' E 120°13'0 0.0
2014-Sep-23 00:31N 22°39' E 120°13'0 0.1
2014-Sep-22 23:31N 22°39' E 120°13'0 0.1
2014-Sep-22 22:33N 22°39' E 120°13'10 9.6
2014-Sep-22 21:32N 22°43' E 120°03'1413.1
2014-Sep-22 20:27N 22°50' E 119°50'6813.6
2014-Sep-22 15:26N 23°37' E 118°56'3112.8
2014-Sep-22 13:03N 23°59' E 118°33'911.8
2014-Sep-22 12:17N 24°05' E 118°25'  
Track history (hours):
 
Tides and Currents Weather Stations Pressure Air Temp Water Temp Dewpoint Dewpoint Depression Visibility Wind Speed Wind Dir Waves Ship Positions

Shin Chun

Last reported at 2014-Oct-02 12:33 UTC. Time now 2014-Oct-02 12:36 UTC.
Position N 25°19' E 119°31'.

Length 152 m; draft 6.1 m.

Type: Cargo ship. MMSI: 477218300.

Date/timePositionNaut miles runAvg speedWind from/ knotsBaromVisibWave heightAir tempDewpointWater temp
2014-Oct-02 12:33N 25°19' E 119°31'1413.9
2014-Oct-02 11:33N 25°25' E 119°17'0 0.2
2014-Oct-02 10:14N 25°25' E 119°17'0 0.0
2014-Oct-02 09:32N 25°25' E 119°17'0 0.0
2014-Oct-02 02:20N 25°25' E 119°17'14 7.6
2014-Oct-02 00:33N 25°19' E 119°31'151 5.3
2014-Sep-30 20:14N 22°51' E 120°02'1014.7
2014-Sep-30 19:33N 22°43' E 120°09'1111.4
2014-Sep-30 18:33N 22°35' E 120°18'1 0.7
2014-Sep-30 17:28N 22°35' E 120°18'0 0.0
2014-Sep-30 16:22N 22°35' E 120°18'0 0.0
2014-Sep-30 15:28N 22°35' E 120°18'0 0.0
2014-Sep-30 14:28N 22°35' E 120°18'0 0.0
2014-Sep-30 13:28N 22°35' E 120°18'0 0.0
2014-Sep-30 12:28N 22°35' E 120°18'0 0.0
2014-Sep-30 11:28N 22°35' E 120°18'0 0.0
2014-Sep-30 10:16N 22°35' E 120°18'0 0.0
2014-Sep-30 09:28N 22°35' E 120°18'0 0.0
2014-Sep-30 06:25N 22°35' E 120°18'0 0.2
2014-Sep-30 05:20N 22°35' E 120°18'6 7.3
2014-Sep-30 04:33N 22°37' E 120°13'9 8.9
2014-Sep-30 03:34N 22°42' E 120°04'1313.3
2014-Sep-30 02:33N 22°50' E 119°53'1414.4
2014-Sep-30 01:33N 22°58' E 119°39'2015.1
2014-Sep-30 00:15N 23°10' E 119°23'1215.6
2014-Sep-29 23:28N 23°19' E 119°14'1516.1
2014-Sep-29 22:33N 23°30' E 119°03'4915.7
2014-Sep-29 19:27N 24°05' E 118°26'1314.7
2014-Sep-29 18:33N 24°15' E 118°16'1413.6
2014-Sep-29 17:33N 24°24' E 118°06'6 6.3
2014-Sep-29 16:32N 24°31' E 118°05'0 0.0
2014-Sep-29 15:32N 24°31' E 118°05'0 0.0
2014-Sep-29 14:32N 24°31' E 118°05'0 0.0
2014-Sep-29 13:32N 24°31' E 118°05'0 0.0
2014-Sep-29 12:32N 24°31' E 118°05'0 0.0
2014-Sep-29 11:32N 24°31' E 118°05'0 0.0
2014-Sep-29 10:20N 24°31' E 118°05'0 0.0
2014-Sep-29 09:32N 24°31' E 118°05'0 0.0
2014-Sep-29 08:20N 24°31' E 118°05'0 0.0
2014-Sep-29 07:29N 24°31' E 118°05'0 0.0
2014-Sep-29 06:32N 24°31' E 118°05'0 0.0
2014-Sep-29 05:26N 24°31' E 118°05'0 0.0
2014-Sep-29 04:31N 24°31' E 118°05'0 0.0
2014-Sep-29 03:31N 24°31' E 118°05'0 0.0
2014-Sep-29 02:31N 24°31' E 118°05'0 0.0
2014-Sep-29 01:31N 24°31' E 118°05'0 0.0
2014-Sep-29 00:31N 24°31' E 118°05'3 3.2
2014-Sep-28 23:33N 24°28' E 118°03'1110.8
2014-Sep-28 22:33N 24°20' E 118°11'1413.8
2014-Sep-28 21:33N 24°09' E 118°21'1413.8
2014-Sep-28 20:33N 23°60' E 118°32'2913.5
2014-Sep-28 18:26N 23°39' E 118°53'1313.8
2014-Sep-28 17:29N 23°29' E 119°03'1815.0
2014-Sep-28 16:15N 23°16' E 119°17'1116.3
2014-Sep-28 15:34N 23°08' E 119°25'1514.5
2014-Sep-28 14:33N 22°58' E 119°38'1515.1
2014-Sep-28 13:33N 22°49' E 119°50'1414.2
2014-Sep-28 12:33N 22°40' E 120°02'1413.5
2014-Sep-28 11:33N 22°33' E 120°14'4 4.0
2014-Sep-28 10:32N 22°35' E 120°18'0 0.1
2014-Sep-28 09:32N 22°35' E 120°18'0 0.1
2014-Sep-28 08:26N 22°35' E 120°18'0 0.0
2014-Sep-28 07:32N 22°35' E 120°18'0 0.0
2014-Sep-28 06:32N 22°35' E 120°18'0 0.0
2014-Sep-28 05:32N 22°35' E 120°18'0 0.0
2014-Sep-28 04:32N 22°35' E 120°18'0 0.0
2014-Sep-28 03:32N 22°35' E 120°18'0 0.0
2014-Sep-28 02:32N 22°35' E 120°18'0 0.0
2014-Sep-28 01:20N 22°35' E 120°18'0 0.0
2014-Sep-28 00:32N 22°35' E 120°18'1 0.5
2014-Sep-27 23:33N 22°35' E 120°18'6 6.4
2014-Sep-27 22:33N 22°38' E 120°12'3 2.7
2014-Sep-27 21:33N 22°40' E 120°10'7 6.6
2014-Sep-27 20:33N 22°45' E 120°06'1413.9
2014-Sep-27 19:33N 22°56' E 119°56'6812.4
2014-Sep-27 14:07N 24°04' E 119°58'12212.8
2014-Sep-27 04:33N 26°05' E 119°44'10 9.7
2014-Sep-27 03:33N 26°07' E 119°33'8 8.0
2014-Sep-27 02:33N 26°00' E 119°29'0 0.0
2014-Sep-27 01:22N 26°00' E 119°29'0 0.0
2014-Sep-27 00:28N 26°00' E 119°29'0 0.0
2014-Sep-26 23:22N 26°00' E 119°29'0 0.0
2014-Sep-26 22:22N 26°00' E 119°29'0 0.0
2014-Sep-26 21:28N 26°00' E 119°29'0 0.0
2014-Sep-26 20:22N 26°00' E 119°29'0 0.0
2014-Sep-26 19:28N 26°00' E 119°29'0 0.0
2014-Sep-26 18:28N 26°00' E 119°29'0 0.0
2014-Sep-26 17:28N 26°00' E 119°29'0 0.0
2014-Sep-26 16:28N 26°00' E 119°29'0 0.0
2014-Sep-26 15:22N 26°00' E 119°29'0 0.0
2014-Sep-26 14:28N 26°00' E 119°29'0 0.0
2014-Sep-26 13:16N 26°00' E 119°29'0 0.0
2014-Sep-26 12:28N 26°00' E 119°29'0 0.0
2014-Sep-26 11:28N 26°00' E 119°29'0 0.0
2014-Sep-26 10:28N 26°00' E 119°29'0 0.0
2014-Sep-26 09:28N 26°00' E 119°29'0 0.0
2014-Sep-26 08:28N 26°00' E 119°29'0 0.0
2014-Sep-26 07:22N 26°00' E 119°29'0 0.0
2014-Sep-26 06:28N 26°00' E 119°29'0 0.4
2014-Sep-26 05:33N 26°00' E 119°29'5 4.8
2014-Sep-26 04:33N 26°05' E 119°32'10 6.8
2014-Sep-26 03:09N 26°06' E 119°42'5 8.4
2014-Sep-26 02:30N 26°05' E 119°48'2 0.4
2014-Sep-25 21:30N 26°04' E 119°50'1612.1
2014-Sep-25 20:09N 25°49' E 119°59'39 8.6
2014-Sep-25 15:33N 25°19' E 119°30'1311.4
2014-Sep-25 14:27N 25°24' E 119°17'1 0.5
2014-Sep-25 13:19N 25°25' E 119°17'0 0.0
2014-Sep-25 12:31N 25°25' E 119°17'0 0.0
2014-Sep-25 11:31N 25°25' E 119°17'0 0.0
2014-Sep-25 10:31N 25°25' E 119°17'0 0.0
2014-Sep-25 09:28N 25°25' E 119°17'0 0.0
2014-Sep-25 08:28N 25°25' E 119°17'0 0.0
2014-Sep-25 07:22N 25°25' E 119°17'0 0.0
2014-Sep-25 06:16N 25°25' E 119°17'0 0.0
2014-Sep-25 05:22N 25°25' E 119°17'0 0.0
2014-Sep-25 04:28N 25°25' E 119°17'0 0.0
2014-Sep-25 03:22N 25°25' E 119°17'6 2.0
2014-Sep-25 00:34N 25°22' E 119°23'1211.4
2014-Sep-24 23:32N 25°18' E 119°35'4 3.7
2014-Sep-24 22:32N 25°17' E 119°39'0 0.1
2014-Sep-24 20:32N 25°17' E 119°39'0 0.5
2014-Sep-24 19:33N 25°17' E 119°39'143 7.9
2014-Sep-24 01:33N 22°55' E 119°58'1414.2
2014-Sep-24 00:33N 22°43' E 120°07'1312.7
2014-Sep-23 23:33N 22°33' E 120°15'4 3.5
2014-Sep-23 22:19N 22°33' E 120°19'0 0.0
2014-Sep-23 19:31N 22°33' E 120°19'0 0.0
2014-Sep-23 17:16N 22°33' E 120°19'0 0.1
2014-Sep-23 16:22N 22°33' E 120°19'0 0.1
2014-Sep-23 15:30N 22°33' E 120°19'0 0.0
2014-Sep-23 14:33N 22°33' E 120°19'5 5.0
2014-Sep-23 13:33N 22°32' E 120°14'7 7.0
2014-Sep-23 12:31N 22°39' E 120°13'0 0.1
2014-Sep-23 11:31N 22°39' E 120°13'0 0.0
2014-Sep-23 10:31N 22°39' E 120°13'0 0.0
2014-Sep-23 09:31N 22°39' E 120°13'0 0.0
2014-Sep-23 08:31N 22°39' E 120°13'0 0.1
2014-Sep-23 07:31N 22°39' E 120°13'0 0.1
2014-Sep-23 06:31N 22°39' E 120°13'0 0.1
2014-Sep-23 05:25N 22°39' E 120°13'0 0.0
2014-Sep-23 04:19N 22°39' E 120°13'0 0.1
2014-Sep-23 03:31N 22°39' E 120°12'0 0.1
2014-Sep-23 02:25N 22°39' E 120°12'0 0.1
2014-Sep-23 01:31N 22°39' E 120°13'0 0.0
2014-Sep-23 00:31N 22°39' E 120°13'0 0.1
2014-Sep-22 23:31N 22°39' E 120°13'0 0.1
2014-Sep-22 22:33N 22°39' E 120°13'10 9.6
2014-Sep-22 21:32N 22°43' E 120°03'1413.1
2014-Sep-22 20:27N 22°50' E 119°50'6813.6
2014-Sep-22 15:26N 23°37' E 118°56'3112.8
2014-Sep-22 13:03N 23°59' E 118°33'911.8
2014-Sep-22 12:17N 24°05' E 118°25'  

Dump ship's entire track history